Time;durP1;ratioP1;P1;durP2;ratioP2;P2;SDS_P1;SDS_P2;PMS_P1;PMS_P2;Temp;Humidity;BMP_temperature;BMP_pressure;BME280_temperature;BME280_humidity;BME280_pressure;Samples;Min_cycle;Max_cycle;Signal;HPM_P1;HPM_P2
2024/01/19 00:00:20;;;;;;;;;;;;;;;-17.08;64.25;97941.03;6245163;28;20367;-65
2024/01/19 00:03:21;;;;;;;;;;;;;;;-17.09;64.19;97940.16;6245061;28;19921;-67
2024/01/19 00:06:24;;;;;;;;;;;;;;;-17.12;64.01;97942.50;6244874;28;19943;-67
2024/01/19 00:09:25;;;;;;;;;;;;;;;-17.13;64.00;97940.72;6244917;28;19921;-67
2024/01/19 00:12:26;;;;;;;;;;;;;;;-17.17;63.84;97948.03;6244758;28;19987;-67
2024/01/19 00:15:28;;;;;;;;;;;;;;;-17.20;64.09;97946.19;6244081;28;19983;-66
2024/01/19 00:18:33;;;;;;;;;;;;;;;-17.27;63.94;97947.47;6244940;28;20015;-66
2024/01/19 00:21:40;;;;;;;;;;;;;;;-17.34;63.88;97950.41;6244202;28;20409;-66
2024/01/19 00:24:43;;;;;;;;;;;;;;;-17.41;64.01;97943.25;6244724;28;19921;-67
2024/01/19 00:27:45;;;;;;;;;;;;;;;-17.53;63.82;97947.53;6243658;28;20362;-66
2024/01/19 00:30:46;;;;;;;;;;;;;;;-17.64;63.94;97943.50;6244336;28;19921;-66
2024/01/19 00:33:47;;;;;;;;;;;;;;;-17.70;64.12;97944.00;6244435;28;20041;-66
2024/01/19 00:36:48;;;;;;;;;;;;;;;-17.78;64.05;97920.94;6244544;28;19928;-67
2024/01/19 00:39:49;;;;;;;;;;;;;;;-17.83;64.35;97931.47;6244170;28;19916;-67
2024/01/19 00:42:50;;;;;;;;;;;;;;;-17.90;64.14;97942.81;6243903;28;19920;-66
2024/01/19 00:45:51;;;;;;;;;;;;;;;-17.95;64.42;97954.22;6244216;28;20287;-66
2024/01/19 00:48:54;;;;;;;;;;;;;;;-18.10;64.23;97949.09;6244212;28;19921;-66
2024/01/19 00:51:58;;;;;;;;;;;;;;;-18.23;64.27;97962.50;6244283;28;19967;-67
2024/01/19 00:54:59;;;;;;;;;;;;;;;-18.15;64.42;97963.88;6243457;28;19921;-67
2024/01/19 00:58:03;;;;;;;;;;;;;;;-18.25;64.45;97971.63;6244186;28;19921;-66
2024/01/19 01:01:04;;;;;;;;;;;;;;;-18.35;64.40;97969.28;6243940;28;19927;-66
2024/01/19 01:04:05;;;;;;;;;;;;;;;-18.42;64.37;97963.00;6247650;28;20494;-66
2024/01/19 01:07:08;;;;;;;;;;;;;;;-18.51;64.30;97964.91;6248901;28;20448;-66
2024/01/19 01:10:09;;;;;;;;;;;;;;;-18.59;64.35;97964.41;6248987;28;19953;-67
2024/01/19 01:13:09;;;;;;;;;;;;;;;-18.65;64.26;97961.50;6248867;28;20382;-67
2024/01/19 01:16:10;;;;;;;;;;;;;;;-18.75;64.06;97960.84;6231367;28;19921;-67
2024/01/19 01:19:14;;;;;;;;;;;;;;;-18.91;63.94;97969.00;6249227;28;19917;-67
2024/01/19 01:22:17;;;;;;;;;;;;;;;-19.04;64.20;97968.19;6248645;28;20513;-66
2024/01/19 01:25:18;;;;;;;;;;;;;;;-19.12;64.30;97978.47;6248481;28;19928;-66
2024/01/19 01:28:19;;;;;;;;;;;;;;;-19.21;64.24;97987.91;6247973;28;19921;-66
2024/01/19 01:31:20;;;;;;;;;;;;;;;-19.31;64.05;97998.91;6247636;28;19927;-66
2024/01/19 01:34:24;;;;;;;;;;;;;;;-19.22;64.25;97992.00;6248345;28;20302;-67
2024/01/19 01:37:27;;;;;;;;;;;;;;;-19.04;64.30;98007.44;6231183;28;19921;-67
2024/01/19 01:40:31;;;;;;;;;;;;;;;-18.47;64.21;98017.06;6248286;28;19921;-66
2024/01/19 01:43:32;;;;;;;;;;;;;;;-18.21;63.93;98017.88;6247891;28;19921;-66
2024/01/19 01:46:33;;;;;;;;;;;;;;;-17.93;64.12;98020.53;6247498;28;19928;-66
2024/01/19 01:49:34;;;;;;;;;;;;;;;-17.99;63.88;98015.13;6247437;28;19920;-66
2024/01/19 01:52:39;;;;;;;;;;;;;;;-17.81;64.00;98011.22;6247509;28;19921;-65
2024/01/19 01:55:41;;;;;;;;;;;;;;;-17.67;63.97;98010.41;6247590;28;20043;-66
2024/01/19 01:58:42;;;;;;;;;;;;;;;-17.81;63.99;98005.34;6229612;28;19925;-66
2024/01/19 02:01:46;;;;;;;;;;;;;;;-17.69;64.56;98011.09;6247689;28;19921;-66
2024/01/19 02:04:47;;;;;;;;;;;;;;;-17.62;63.88;98007.34;6247393;28;20188;-66
2024/01/19 02:07:48;;;;;;;;;;;;;;;-17.73;64.19;98015.06;6247537;28;19921;-66
2024/01/19 02:10:51;;;;;;;;;;;;;;;-17.77;64.50;98033.25;6247554;28;19944;-66
2024/01/19 02:13:54;;;;;;;;;;;;;;;-17.72;64.36;98036.91;6246954;28;19916;-69
2024/01/19 02:16:55;;;;;;;;;;;;;;;-17.61;64.39;98034.22;6247349;28;19921;-66
2024/01/19 02:19:57;;;;;;;;;;;;;;;-17.73;64.54;98025.13;6247388;28;19924;-66
2024/01/19 02:22:59;;;;;;;;;;;;;;;-17.73;64.48;98025.13;6246920;28;20023;-67
2024/01/19 02:26:02;;;;;;;;;;;;;;;-17.83;64.54;98027.88;6247350;28;19921;-66
2024/01/19 02:29:06;;;;;;;;;;;;;;;-17.88;64.51;98029.22;6247169;28;19921;-66
2024/01/19 02:32:09;;;;;;;;;;;;;;;-17.96;64.54;98026.22;6246095;28;19921;-67
2024/01/19 02:35:10;;;;;;;;;;;;;;;-18.01;64.82;98031.72;6246325;28;19921;-67
2024/01/19 02:38:13;;;;;;;;;;;;;;;-18.07;65.01;98032.19;6246698;28;19921;-67
2024/01/19 02:41:15;;;;;;;;;;;;;;;-18.11;65.15;98035.31;6246236;28;19931;-66
2024/01/19 02:44:18;;;;;;;;;;;;;;;-18.00;65.01;98043.50;6246568;28;20318;-67
2024/01/19 02:47:21;;;;;;;;;;;;;;;-17.93;65.25;98045.66;6246528;28;20024;-67
2024/01/19 02:50:22;;;;;;;;;;;;;;;-17.92;65.12;98052.41;6245891;28;19925;-67
2024/01/19 02:53:23;;;;;;;;;;;;;;;-17.69;64.71;98062.28;6245720;28;19928;-67
2024/01/19 02:56:24;;;;;;;;;;;;;;;-17.69;64.89;98058.84;6245743;28;19927;-66
2024/01/19 02:59:29;;;;;;;;;;;;;;;-17.50;64.90;98050.84;6245557;28;20376;-67
2024/01/19 03:02:29;;;;;;;;;;;;;;;-17.53;64.74;98048.13;6245691;28;20417;-66
2024/01/19 03:05:31;;;;;;;;;;;;;;;-17.28;64.84;98051.41;6245573;28;19921;-66
2024/01/19 03:08:36;;;;;;;;;;;;;;;-17.48;64.64;98057.72;6245962;28;20304;-66
2024/01/19 03:11:39;;;;;;;;;;;;;;;-17.19;64.98;98080.41;6245647;28;19920;-66
2024/01/19 03:14:40;;;;;;;;;;;;;;;-17.14;64.68;98074.03;6245037;28;19927;-68
2024/01/19 03:17:41;;;;;;;;;;;;;;;-17.12;64.95;98074.97;6245951;28;19921;-67
2024/01/19 03:20:44;;;;;;;;;;;;;;;-16.99;64.99;98074.94;6245678;28;20306;-66
2024/01/19 03:23:48;;;;;;;;;;;;;;;-17.03;64.90;98062.97;6245634;28;19921;-66
2024/01/19 03:26:49;;;;;;;;;;;;;;;-17.16;64.88;98076.44;6244717;28;20023;-65
2024/01/19 03:29:50;;;;;;;;;;;;;;;-17.36;64.98;98077.72;6244818;28;19921;-66
2024/01/19 03:32:51;;;;;;;;;;;;;;;-17.35;65.32;98079.47;6245556;28;20033;-67
2024/01/19 03:35:52;;;;;;;;;;;;;;;-17.16;65.52;98083.13;6245103;28;20842;-67
2024/01/19 03:38:57;;;;;;;;;;;;;;;-17.14;65.14;98082.44;6245599;28;19921;-67
2024/01/19 03:41:59;;;;;;;;;;;;;;;-17.29;65.28;98089.91;6244499;28;20299;-66
2024/01/19 03:45:00;;;;;;;;;;;;;;;-17.38;65.19;98104.41;6244384;28;19955;-67
2024/01/19 03:48:03;;;;;;;;;;;;;;;-17.41;65.51;98096.69;6245199;28;20302;-66
2024/01/19 03:51:06;;;;;;;;;;;;;;;-17.28;65.92;98094.16;6245035;28;20369;-66
2024/01/19 03:54:07;;;;;;;;;;;;;;;-17.35;65.89;98109.66;6246502;28;19960;-66
2024/01/19 03:57:08;;;;;;;;;;;;;;;-17.13;65.83;98108.47;6244943;28;19920;-66
2024/01/19 04:00:10;;;;;;;;;;;;;;;-17.09;66.06;98107.91;6244900;28;19925;-66
2024/01/19 04:03:18;;;;;;;;;;;;;;;-16.88;65.90;98113.38;6244826;28;20398;-67
2024/01/19 04:06:19;;;;;;;;;;;;;;;-16.92;65.30;98117.34;6243807;28;19925;-67
2024/01/19 04:09:24;;;;;;;;;;;;;;;-16.97;65.58;98118.72;6244832;28;19929;-66
2024/01/19 04:12:28;;;;;;;;;;;;;;;-16.81;65.46;98118.88;6244198;28;20005;-67
2024/01/19 04:15:31;;;;;;;;;;;;;;;-16.87;65.06;98121.00;6244517;28;20382;-67
2024/01/19 04:18:34;;;;;;;;;;;;;;;-16.84;64.85;98118.69;6244219;28;20383;-67
2024/01/19 04:21:38;;;;;;;;;;;;;;;-17.11;64.80;98110.31;6244670;28;19921;-67
2024/01/19 04:24:39;;;;;;;;;;;;;;;-17.16;65.25;98116.69;6243492;28;20386;-67
2024/01/19 04:27:41;;;;;;;;;;;;;;;-17.13;65.37;98105.94;6244517;28;20395;-67
2024/01/19 04:30:42;;;;;;;;;;;;;;;-17.21;65.21;98106.38;6252744;28;19928;-66
2024/01/19 04:33:43;;;;;;;;;;;;;;;-17.26;65.56;98114.41;6269019;28;20011;-67
2024/01/19 04:36:45;;;;;;;;;;;;;;;-17.22;65.49;98118.84;6268560;28;19920;-66
2024/01/19 04:39:46;;;;;;;;;;;;;;;-17.12;65.42;98117.75;6268922;28;20001;-67
2024/01/19 04:42:49;;;;;;;;;;;;;;;-17.03;65.37;98116.69;6269033;28;19924;-66
2024/01/19 04:45:50;;;;;;;;;;;;;;;-17.23;65.07;98124.66;6268897;28;19927;-67
2024/01/19 04:48:56;;;;;;;;;;;;;;;-17.29;65.17;98122.63;6269100;28;19921;-67
2024/01/19 04:51:59;;;;;;;;;;;;;;;-17.42;65.01;98125.13;6269089;28;19929;-67
2024/01/19 04:55:02;;;;;;;;;;;;;;;-17.52;65.35;98126.19;6268301;28;19920;-67
2024/01/19 04:58:08;;;;;;;;;;;;;;;-17.58;65.30;98115.72;6268640;28;19963;-66
2024/01/19 05:01:11;;;;;;;;;;;;;;;-17.62;65.28;98120.47;6268443;28;19920;-67
2024/01/19 05:04:14;;;;;;;;;;;;;;;-17.66;65.25;98112.75;6268800;28;19921;-67
2024/01/19 05:07:15;;;;;;;;;;;;;;;-17.75;65.38;98114.66;6268774;28;20002;-67
2024/01/19 05:10:21;;;;;;;;;;;;;;;-17.79;65.30;98111.88;6268560;28;19924;-67
2024/01/19 05:13:24;;;;;;;;;;;;;;;-17.82;65.45;98112.56;6268805;28;19921;-67
2024/01/19 05:16:28;;;;;;;;;;;;;;;-17.86;65.33;98115.63;6268604;28;19921;-67
2024/01/19 05:19:29;;;;;;;;;;;;;;;-17.86;65.39;98132.34;6267836;28;20070;-67
2024/01/19 05:22:30;;;;;;;;;;;;;;;-17.87;65.23;98141.53;6268813;28;19928;-68
2024/01/19 05:25:33;;;;;;;;;;;;;;;-17.81;65.13;98146.97;6268036;28;20062;-68
2024/01/19 05:28:37;;;;;;;;;;;;;;;-17.78;65.03;98159.72;6268284;28;20079;-67
2024/01/19 05:31:41;;;;;;;;;;;;;;;-17.76;65.16;98165.72;6251645;28;20032;-66
2024/01/19 05:34:43;;;;;;;;;;;;;;;-17.72;65.01;98166.78;6243279;28;19917;-68
2024/01/19 05:37:46;;;;;;;;;;;;;;;-17.66;65.16;98173.09;6243640;28;19921;-67
2024/01/19 05:40:50;;;;;;;;;;;;;;;-17.54;64.90;98162.09;6243668;28;19917;-67
2024/01/19 05:43:51;;;;;;;;;;;;;;;-17.46;64.79;98164.31;6243764;28;20405;-68
2024/01/19 05:46:57;;;;;;;;;;;;;;;-17.38;64.68;98161.41;6243706;28;19920;-68
2024/01/19 05:50:00;;;;;;;;;;;;;;;-17.31;64.25;98159.38;6246273;28;19928;-67
2024/01/19 05:53:04;;;;;;;;;;;;;;;-17.18;64.35;98150.09;6248060;28;20074;-68
2024/01/19 05:56:08;;;;;;;;;;;;;;;-17.03;64.20;98146.88;6248365;28;19925;-67
2024/01/19 05:59:09;;;;;;;;;;;;;;;-16.73;63.26;98148.66;6248432;28;19925;-65
2024/01/19 06:02:12;;;;;;;;;;;;;;;-16.74;62.90;98162.88;6247950;28;19921;-67
2024/01/19 06:05:13;;;;;;;;;;;;;;;-16.58;63.20;98169.75;6247105;28;20647;-67
2024/01/19 06:08:16;;;;;;;;;;;;;;;-16.50;62.66;98155.94;6247591;28;20378;-65
2024/01/19 06:11:17;;;;;;;;;;;;;;;-16.48;62.92;98148.50;6247691;28;19921;-67
2024/01/19 06:14:19;;;;;;;;;;;;;;;-16.43;63.11;98144.59;6247668;28;20333;-67
2024/01/19 06:17:22;;;;;;;;;;;;;;;-16.41;62.46;98164.06;6247545;28;19928;-67
2024/01/19 06:20:23;;;;;;;;;;;;;;;-16.37;62.53;98171.03;6247414;28;19920;-67
2024/01/19 06:23:24;;;;;;;;;;;;;;;-16.33;62.85;98157.84;6246987;28;20325;-66
2024/01/19 06:26:27;;;;;;;;;;;;;;;-16.25;62.61;98170.88;6246757;28;19928;-68
2024/01/19 06:29:28;;;;;;;;;;;;;;;-16.20;62.84;98172.03;6246894;28;19921;-67
2024/01/19 06:32:31;;;;;;;;;;;;;;;-16.13;62.58;98188.41;6270408;28;19920;-68
2024/01/19 06:35:35;;;;;;;;;;;;;;;-16.07;62.63;98201.38;6271922;28;19940;-66
2024/01/19 06:38:38;;;;;;;;;;;;;;;-15.95;62.65;98197.06;6272024;28;19921;-67
2024/01/19 06:41:43;;;;;;;;;;;;;;;-15.69;61.75;98200.22;6271646;28;19921;-67
2024/01/19 06:44:44;;;;;;;;;;;;;;;-15.43;60.49;98210.13;6270749;28;19925;-66
2024/01/19 06:47:47;;;;;;;;;;;;;;;-15.40;60.22;98209.44;6271636;28;19920;-68
2024/01/19 06:50:48;;;;;;;;;;;;;;;-15.34;60.16;98208.91;6270297;28;19920;-67
2024/01/19 06:53:49;;;;;;;;;;;;;;;-15.14;59.26;98198.31;6270861;28;19920;-66
2024/01/19 06:56:50;;;;;;;;;;;;;;;-15.34;59.40;98198.81;6270349;28;20415;-67
2024/01/19 06:59:51;;;;;;;;;;;;;;;-14.90;60.14;98198.78;6269525;28;19920;-68
2024/01/19 07:02:53;;;;;;;;;;;;;;;-13.51;59.72;98204.38;6270961;28;20011;-67
2024/01/19 07:05:56;;;;;;;;;;;;;;;-12.04;55.92;98193.53;6271041;28;19920;-67
2024/01/19 07:09:00;;;;;;;;;;;;;;;-10.82;54.54;98191.84;6271032;28;19980;-66
2024/01/19 07:12:01;;;;;;;;;;;;;;;-7.79;50.94;98194.47;6270820;28;19920;-66
2024/01/19 07:15:02;;;;;;;;;;;;;;;-6.40;49.31;98202.31;6270444;28;20011;-67
2024/01/19 07:18:04;;;;;;;;;;;;;;;-5.75;43.70;98196.00;6252296;28;20066;-67
2024/01/19 07:21:11;;;;;;;;;;;;;;;-4.55;41.24;98184.53;6270779;28;20390;-66
2024/01/19 07:24:15;;;;;;;;;;;;;;;-2.57;38.60;98191.19;6270603;28;19921;-68
2024/01/19 07:27:16;;;;;;;;;;;;;;;0.01;38.04;98197.19;6252142;28;19920;-66
2024/01/19 07:30:17;;;;;;;;;;;;;;;2.15;32.88;98205.44;6265096;28;19927;-66
2024/01/19 07:33:20;;;;;;;;;;;;;;;3.36;31.40;98198.75;6245263;28;19948;-67
2024/01/19 07:36:22;;;;;;;;;;;;;;;3.96;29.08;98206.47;6245482;28;19928;-66
2024/01/19 07:39:26;;;;;;;;;;;;;;;3.69;27.67;98219.94;6245231;28;19921;-67
2024/01/19 07:42:30;;;;;;;;;;;;;;;3.47;25.70;98215.06;6245361;28;19928;-67
2024/01/19 07:45:35;;;;;;;;;;;;;;;4.27;27.02;98211.13;6245084;28;19932;-67
2024/01/19 07:48:39;;;;;;;;;;;;;;;5.74;25.10;98215.84;6245314;28;19921;-66
2024/01/19 07:51:39;;;;;;;;;;;;;;;6.57;25.00;98203.31;6244639;28;19925;-67
2024/01/19 07:54:41;;;;;;;;;;;;;;;7.50;24.35;98212.78;6245131;28;19916;-66
2024/01/19 07:57:44;;;;;;;;;;;;;;;8.43;22.40;98211.47;6226652;28;20015;-66
2024/01/19 08:00:45;;;;;;;;;;;;;;;8.60;21.99;98207.41;6243910;28;19928;-65
2024/01/19 08:03:51;;;;;;;;;;;;;;;8.99;21.34;98216.47;6244915;28;19925;-67
2024/01/19 08:06:52;;;;;;;;;;;;;;;10.16;21.46;98217.13;6244978;28;19921;-67
2024/01/19 08:09:55;;;;;;;;;;;;;;;10.08;19.84;98219.25;6244873;28;20014;-67
2024/01/19 08:12:58;;;;;;;;;;;;;;;9.33;20.13;98225.69;6244394;28;19979;-68
2024/01/19 08:16:06;;;;;;;;;;;;;;;9.63;21.73;98225.44;6226623;28;19974;-67
2024/01/19 08:19:06;;;;;;;;;;;;;;;9.61;19.88;98216.75;6244104;28;19925;-68
2024/01/19 08:22:07;;;;;;;;;;;;;;;7.20;21.99;98202.34;6244246;28;20353;-67
2024/01/19 08:25:13;;;;;;;;;;;;;;;5.12;23.21;98216.41;6244617;28;19921;-66
2024/01/19 08:28:14;;;;;;;;;;;;;;;4.20;24.79;98212.97;6243916;28;19921;-67
2024/01/19 08:31:15;;;;;;;;;;;;;;;4.86;24.05;98224.75;6256679;28;19916;-67
2024/01/19 08:34:19;;;;;;;;;;;;;;;3.80;23.34;98213.66;6269013;28;19932;-68
2024/01/19 08:37:22;;;;;;;;;;;;;;;1.27;24.63;98198.38;6268359;28;19928;-70
2024/01/19 08:40:23;;;;;;;;;;;;;;;0.07;26.45;98202.34;6268852;28;20329;-66
2024/01/19 08:43:24;;;;;;;;;;;;;;;0.45;26.47;98194.47;6268328;28;20054;-68
2024/01/19 08:46:29;;;;;;;;;;;;;;;0.82;26.48;98187.44;6268847;28;19921;-68
2024/01/19 08:49:30;;;;;;;;;;;;;;;3.67;23.86;98195.66;6268424;28;19927;-67
2024/01/19 08:52:33;;;;;;;;;;;;;;;3.98;22.55;98190.81;6268648;28;19921;-66
2024/01/19 08:55:39;;;;;;;;;;;;;;;2.37;24.72;98185.28;6268941;28;20023;-66
2024/01/19 08:58:42;;;;;;;;;;;;;;;0.29;27.32;98185.91;6268249;28;19928;-67
2024/01/19 09:01:45;;;;;;;;;;;;;;;-1.22;30.08;98181.59;6268357;28;19944;-67
2024/01/19 09:04:46;;;;;;;;;;;;;;;-2.68;31.38;98177.34;6268930;28;20394;-66
2024/01/19 09:07:50;;;;;;;;;;;;;;;-3.35;31.51;98193.84;6268669;28;19927;-67
2024/01/19 09:10:51;;;;;;;;;;;;;;;-4.04;32.49;98189.56;6250883;28;20011;-67
2024/01/19 09:13:52;;;;;;;;;;;;;;;-5.00;33.73;98188.06;6268421;28;19961;-67
2024/01/19 09:16:53;;;;;;;;;;;;;;;-5.96;34.84;98183.66;6267983;28;20021;-67
2024/01/19 09:19:59;;;;;;;;;;;;;;;-6.71;35.35;98189.63;6268725;28;19920;-67
2024/01/19 09:23:00;;;;;;;;;;;;;;;-7.51;37.04;98187.59;6268435;28;19927;-67
2024/01/19 09:26:03;;;;;;;;;;;;;;;-7.79;37.34;98191.06;6272781;28;20023;-67
2024/01/19 09:29:04;;;;;;;;;;;;;;;-8.17;37.92;98178.91;6273049;28;19927;-68
2024/01/19 09:32:07;;;;;;;;;;;;;;;-8.40;37.44;98185.94;6253107;28;19921;-66
2024/01/19 09:35:12;;;;;;;;;;;;;;;-8.84;37.93;98181.97;6248556;28;19921;-67
2024/01/19 09:38:18;;;;;;;;;;;;;;;-9.24;38.98;98170.47;6248369;28;19921;-67
2024/01/19 09:41:31;;;;;;;;;;;;;;;-9.20;38.98;98176.53;6247954;28;20485;-67
2024/01/19 09:44:35;;;;;;;;;;;;;;;-9.61;39.26;98187.03;6247558;28;19921;-67
2024/01/19 09:47:59;;;;;;;;;;;;;;;-9.91;39.92;98198.69;6247589;28;20321;-67
2024/01/19 09:51:06;;;;;;;;;;;;;;;-10.10;40.00;98198.03;6218954;28;19921;-66
2024/01/19 09:54:09;;;;;;;;;;;;;;;-10.20;39.90;98201.00;6248326;28;19921;-66
2024/01/19 09:57:10;;;;;;;;;;;;;;;-10.05;39.77;98210.91;6248061;28;19964;-68
2024/01/19 10:00:12;;;;;;;;;;;;;;;-10.22;39.82;98207.72;6247720;28;20305;-66
2024/01/19 10:03:16;;;;;;;;;;;;;;;-10.22;40.02;98202.63;6247766;28;20278;-66
2024/01/19 10:06:17;;;;;;;;;;;;;;;-10.09;39.76;98194.66;6247409;28;20394;-66
2024/01/19 10:09:24;;;;;;;;;;;;;;;-9.97;39.75;98200.19;6247772;28;19928;-68
2024/01/19 10:12:26;;;;;;;;;;;;;;;-9.62;38.99;98197.16;6248069;28;19921;-67
2024/01/19 10:15:27;;;;;;;;;;;;;;;-9.18;39.18;98192.75;6246693;28;19921;-68
2024/01/19 10:18:29;;;;;;;;;;;;;;;-8.82;38.51;98199.06;6246558;28;20306;-69
2024/01/19 10:21:33;;;;;;;;;;;;;;;-8.87;38.42;98189.53;6247442;28;19990;-68
2024/01/19 10:24:34;;;;;;;;;;;;;;;-8.74;38.40;98189.13;6246549;28;19921;-68
2024/01/19 10:27:45;;;;;;;;;;;;;;;-8.83;38.55;98199.00;6247013;28;19928;-68
2024/01/19 10:30:46;;;;;;;;;;;;;;;-9.19;38.55;98194.44;6247322;28;20066;-68
2024/01/19 10:33:50;;;;;;;;;;;;;;;-8.70;38.50;98150.09;6247292;28;19925;-67
2024/01/19 10:36:53;;;;;;;;;;;;;;;-6.77;36.21;98204.00;6246284;28;19921;-67
2024/01/19 10:39:56;;;;;;;;;;;;;;;-5.97;34.41;98203.28;6246375;28;19928;-67
2024/01/19 10:42:58;;;;;;;;;;;;;;;-7.41;35.59;98199.81;6247180;28;20026;-68
2024/01/19 10:46:17;;;;;;;;;;;;;;;-8.92;38.33;98199.56;6246597;28;19929;-67
2024/01/19 10:49:20;;;;;;;;;;;;;;;-10.19;40.14;98202.75;6247012;28;19925;-68
2024/01/19 10:52:21;;;;;;;;;;;;;;;-10.79;41.21;98212.31;6245988;28;20374;-68
2024/01/19 10:55:27;;;;;;;;;;;;;;;-10.94;41.50;98226.16;6246577;28;19921;-66
2024/01/19 10:58:32;;;;;;;;;;;;;;;-11.08;41.67;98220.50;6245634;28;19928;-67
2024/01/19 11:01:36;;;;;;;;;;;;;;;-11.40;42.11;98221.69;6245469;28;19921;-67
2024/01/19 11:04:39;;;;;;;;;;;;;;;-11.49;42.19;98226.41;6228647;28;19921;-68
2024/01/19 11:07:42;;;;;;;;;;;;;;;-11.79;42.45;98221.72;6245974;28;20287;-68
2024/01/19 11:10:46;;;;;;;;;;;;;;;-12.06;42.72;98217.97;6245357;28;20491;-67
2024/01/19 11:13:54;;;;;;;;;;;;;;;-12.34;43.84;98228.53;6246408;28;20007;-68
2024/01/19 11:16:56;;;;;;;;;;;;;;;-12.55;42.92;98215.75;6244965;28;19921;-68
2024/01/19 11:20:04;;;;;;;;;;;;;;;-12.52;43.19;98226.88;6246035;28;19975;-67
2024/01/19 11:23:07;;;;;;;;;;;;;;;-12.60;43.14;98240.88;6244922;28;19920;-67
2024/01/19 11:26:26;;;;;;;;;;;;;;;-12.69;43.77;98246.38;6245977;28;19928;-67
2024/01/19 11:29:40;;;;;;;;;;;;;;;-12.79;44.03;98233.19;6245478;28;20015;-68
2024/01/19 11:32:41;;;;;;;;;;;;;;;-12.94;44.15;98239.25;6270049;28;20415;-67
2024/01/19 11:35:51;;;;;;;;;;;;;;;-13.05;43.98;98237.00;6269853;28;19928;-67
2024/01/19 11:38:54;;;;;;;;;;;;;;;-13.20;44.52;98240.50;6269505;28;19927;-67
2024/01/19 11:41:57;;;;;;;;;;;;;;;-13.33;44.73;98232.25;6270424;28;19920;-68
2024/01/19 11:44:59;;;;;;;;;;;;;;;-13.26;45.40;98224.19;6269829;28;19921;-67
2024/01/19 11:48:00;;;;;;;;;;;;;;;-13.62;45.17;98226.59;6268734;28;19931;-67
2024/01/19 11:51:05;;;;;;;;;;;;;;;-13.58;45.59;98225.97;6269586;28;19921;-67
2024/01/19 11:54:10;;;;;;;;;;;;;;;-13.42;45.28;98227.59;6269942;28;20393;-67
2024/01/19 11:57:24;;;;;;;;;;;;;;;-13.41;45.13;98225.16;6269798;28;19920;-67
2024/01/19 12:00:25;;;;;;;;;;;;;;;-13.42;45.33;98242.78;6269192;28;19920;-67
2024/01/19 12:03:27;;;;;;;;;;;;;;;-13.57;45.64;98232.78;6269413;28;20309;-68
2024/01/19 12:06:28;;;;;;;;;;;;;;;-13.81;46.06;98252.66;6269579;28;19924;-67
2024/01/19 12:09:31;;;;;;;;;;;;;;;-13.93;46.19;98257.03;6268806;28;20015;-67
2024/01/19 12:12:34;;;;;;;;;;;;;;;-13.98;46.06;98255.91;6269241;28;20289;-67
2024/01/19 12:15:35;;;;;;;;;;;;;;;-14.17;46.83;98249.91;6269186;28;19920;-68
2024/01/19 12:18:37;;;;;;;;;;;;;;;-14.29;46.86;98251.78;6268906;28;20339;-67
2024/01/19 12:21:39;;;;;;;;;;;;;;;-14.22;47.91;98253.84;6268260;28;19921;-67
2024/01/19 12:24:43;;;;;;;;;;;;;;;-14.45;48.02;98244.16;6268922;28;19920;-67
2024/01/19 12:27:44;;;;;;;;;;;;;;;-14.48;48.31;98243.19;6268647;28;19928;-67
2024/01/19 12:30:48;;;;;;;;;;;;;;;-14.41;47.93;98251.09;6259399;28;19920;-67
2024/01/19 12:33:52;;;;;;;;;;;;;;;-14.44;48.37;98261.06;6244513;28;19921;-67
2024/01/19 12:36:55;;;;;;;;;;;;;;;-14.33;49.58;98250.72;6243796;28;20373;-67
2024/01/19 12:40:11;;;;;;;;;;;;;;;-14.58;50.20;98252.75;6244249;28;20386;-67
2024/01/19 12:43:14;;;;;;;;;;;;;;;-14.70;49.77;98252.94;6244370;28;19921;-68
2024/01/19 12:46:18;;;;;;;;;;;;;;;-14.64;50.01;98253.28;6243408;28;19921;-68
2024/01/19 12:49:26;;;;;;;;;;;;;;;-14.51;49.80;98270.84;6243877;28;19991;-67
2024/01/19 12:52:30;;;;;;;;;;;;;;;-14.21;51.01;98275.78;6243855;28;19921;-67
2024/01/19 12:55:33;;;;;;;;;;;;;;;-14.45;51.41;98280.41;6243361;28;19920;-68
2024/01/19 12:58:34;;;;;;;;;;;;;;;-14.38;51.51;98266.44;6245781;28;20408;-67
2024/01/19 13:01:36;;;;;;;;;;;;;;;-14.41;51.98;98261.22;6248293;28;19920;-67
2024/01/19 13:04:42;;;;;;;;;;;;;;;-14.40;52.33;98258.78;6249105;28;19920;-66
2024/01/19 13:07:49;;;;;;;;;;;;;;;-14.25;52.53;98243.56;6249178;28;19921;-67
2024/01/19 13:11:03;;;;;;;;;;;;;;;-14.44;52.42;98230.72;6248257;28;20016;-68
2024/01/19 13:14:05;;;;;;;;;;;;;;;-14.42;53.30;98224.09;6231106;28;20341;-68
2024/01/19 13:17:10;;;;;;;;;;;;;;;-14.41;53.45;98256.16;6248451;28;19941;-68
2024/01/19 13:20:23;;;;;;;;;;;;;;;-14.32;53.58;98277.78;6248254;28;19932;-67
2024/01/19 13:23:24;;;;;;;;;;;;;;;-14.38;52.95;98276.53;6248419;28;19920;-67
2024/01/19 13:26:25;;;;;;;;;;;;;;;-14.30;52.80;98270.25;6248115;28;19928;-68
2024/01/19 13:29:29;;;;;;;;;;;;;;;-14.10;53.03;98254.47;6247886;28;20293;-67
2024/01/19 13:32:34;;;;;;;;;;;;;;;-14.15;53.11;98260.97;6230879;28;19928;-67
2024/01/19 13:35:38;;;;;;;;;;;;;;;-14.09;53.43;98261.31;6248696;28;19921;-67
2024/01/19 13:38:41;;;;;;;;;;;;;;;-13.93;54.24;98262.97;6248468;28;19921;-67
2024/01/19 13:41:42;;;;;;;;;;;;;;;-13.89;54.59;98274.13;6247962;28;19921;-67
2024/01/19 13:44:43;;;;;;;;;;;;;;;-14.09;54.51;98283.19;6248031;28;20311;-67
2024/01/19 13:47:47;;;;;;;;;;;;;;;-14.21;54.12;98270.75;6247330;28;20303;-68
2024/01/19 13:50:48;;;;;;;;;;;;;;;-14.24;54.27;98260.47;6247580;28;19928;-67
2024/01/19 13:53:52;;;;;;;;;;;;;;;-14.25;54.65;98274.78;6248198;28;19925;-67
2024/01/19 13:56:55;;;;;;;;;;;;;;;-13.94;55.50;98257.84;6247648;28;19921;-68
2024/01/19 13:59:57;;;;;;;;;;;;;;;-14.02;54.94;98273.47;6247292;28;19920;-67
2024/01/19 14:02:58;;;;;;;;;;;;;;;-13.97;55.43;98270.34;6246736;28;20035;-67
2024/01/19 14:05:59;;;;;;;;;;;;;;;-13.92;55.76;98269.78;6247130;28;20393;-68
2024/01/19 14:09:01;;;;;;;;;;;;;;;-13.74;56.22;98263.94;6246321;28;19925;-67
2024/01/19 14:12:04;;;;;;;;;;;;;;;-13.85;56.58;98260.84;6246673;28;19928;-67
2024/01/19 14:15:07;;;;;;;;;;;;;;;-13.83;56.74;98254.22;6247261;28;19920;-67
2024/01/19 14:18:13;;;;;;;;;;;;;;;-13.93;57.60;98251.97;6247587;28;20402;-66
2024/01/19 14:21:17;;;;;;;;;;;;;;;-13.86;57.52;98259.13;6247518;28;19917;-68
2024/01/19 14:24:20;;;;;;;;;;;;;;;-13.70;57.47;98264.19;6247636;28;19921;-67
2024/01/19 14:27:23;;;;;;;;;;;;;;;-13.70;57.88;98255.69;6247594;28;19921;-68
2024/01/19 14:30:27;;;;;;;;;;;;;;;-13.70;58.07;98266.72;6253617;28;19921;-67
2024/01/19 14:33:30;;;;;;;;;;;;;;;-13.52;58.43;98256.66;6271385;28;19928;-67
2024/01/19 14:36:34;;;;;;;;;;;;;;;-13.50;58.80;98255.09;6272002;28;20409;-68
2024/01/19 14:39:39;;;;;;;;;;;;;;;-13.59;59.42;98255.47;6271886;28;20365;-68
2024/01/19 14:42:42;;;;;;;;;;;;;;;-13.80;59.40;98254.38;6271457;28;19920;-67
2024/01/19 14:45:46;;;;;;;;;;;;;;;-13.69;59.70;98254.94;6271224;28;19921;-67
2024/01/19 14:48:47;;;;;;;;;;;;;;;-13.58;60.03;98254.69;6270774;28;19921;-67
2024/01/19 14:51:50;;;;;;;;;;;;;;;-13.68;60.11;98265.13;6270920;28;19921;-68
2024/01/19 14:54:54;;;;;;;;;;;;;;;-13.52;60.11;98276.06;6270932;28;19920;-67
2024/01/19 14:57:55;;;;;;;;;;;;;;;-13.53;60.54;98285.28;6271131;28;20049;-66
2024/01/19 15:00:57;;;;;;;;;;;;;;;-13.38;60.85;98275.09;6270392;28;19927;-68
2024/01/19 15:04:00;;;;;;;;;;;;;;;-13.47;60.11;98272.06;6271125;28;19920;-67
2024/01/19 15:07:04;;;;;;;;;;;;;;;-13.67;60.68;98277.00;6253592;28;19921;-67
2024/01/19 15:10:10;;;;;;;;;;;;;;;-13.57;61.47;98268.22;6271064;28;19956;-69
2024/01/19 15:13:12;;;;;;;;;;;;;;;-13.54;60.89;98272.56;6270666;28;20320;-67
2024/01/19 15:16:15;;;;;;;;;;;;;;;-13.70;61.42;98274.31;6270788;28;19925;-68
2024/01/19 15:19:18;;;;;;;;;;;;;;;-13.73;61.73;98278.31;6270333;28;20624;-68
2024/01/19 15:22:20;;;;;;;;;;;;;;;-13.63;61.66;98283.94;6251429;28;19921;-68
2024/01/19 15:25:21;;;;;;;;;;;;;;;-13.65;61.18;98280.47;6270095;28;20394;-68
2024/01/19 15:28:22;;;;;;;;;;;;;;;-13.33;62.01;98263.53;6252227;28;20011;-67
2024/01/19 15:31:25;;;;;;;;;;;;;;;-13.34;61.35;98264.31;6255980;28;19927;-68
2024/01/19 15:34:27;;;;;;;;;;;;;;;-13.14;61.73;98257.69;6244962;28;19917;-69
2024/01/19 15:37:30;;;;;;;;;;;;;;;-13.19;62.07;98257.47;6245224;28;19928;-68
2024/01/19 15:40:31;;;;;;;;;;;;;;;-13.24;61.33;98258.03;6245663;28;19978;-68
2024/01/19 15:43:35;;;;;;;;;;;;;;;-13.37;61.83;98276.81;6245505;28;19921;-68